createdAt,value
2023-03-08T05:15:43.533Z,97396.38
2023-03-08T05:18:10.581Z,97389.97
2023-03-08T05:20:40.040Z,97390.53
2023-03-08T05:23:10.107Z,97396.63
2023-03-08T05:25:45.042Z,97383.56
2023-03-08T05:28:15.982Z,97381.66
2023-03-08T05:30:48.566Z,97379.59
2023-03-08T05:33:17.542Z,97374.41
2023-03-08T05:36:00.737Z,97374.91
2023-03-08T05:38:33.732Z,97370.06
2023-03-08T05:41:09.860Z,97364.16
2023-03-08T05:43:37.166Z,97365.63
2023-03-08T05:46:10.387Z,97358.06
2023-03-08T05:48:40.606Z,97361.00
2023-03-08T05:51:12.185Z,97359.97
2023-03-08T05:53:39.307Z,97360.47
2023-03-08T05:56:11.913Z,97355.03
2023-03-08T05:58:48.444Z,97361.09
2023-03-08T06:01:22.165Z,97351.13
2023-03-08T06:03:52.503Z,97348.34
2023-03-08T06:06:21.638Z,97342.22
2023-03-08T06:08:48.834Z,97342.31
2023-03-08T06:11:16.223Z,97352.84
2023-03-08T06:13:45.667Z,97344.22
2023-03-08T06:16:12.985Z,97346.28
2023-03-08T06:18:43.322Z,97346.50
2023-03-08T06:21:18.018Z,97343.97
2023-03-08T06:23:48.271Z,97347.53
2023-03-08T06:26:16.254Z,97339.41
2023-03-08T06:28:44.007Z,97347.38
2023-03-08T06:31:14.703Z,97347.88
2023-03-08T06:33:42.028Z,97345.78
2023-03-08T06:36:16.582Z,97349.25
2023-03-08T06:38:45.797Z,97345.31
2023-03-08T06:41:14.180Z,97332.69
2023-03-08T06:43:43.364Z,97343.56
2023-03-08T06:46:23.616Z,97345.31
2023-03-08T06:48:57.574Z,97337.84
2023-03-08T06:51:26.848Z,97330.78
2023-03-08T06:53:53.998Z,97337.84
2023-03-08T06:56:24.390Z,97338.22
2023-03-08T06:58:51.029Z,97341.50
2023-03-08T11:32:57.317Z,96902.19
2023-03-08T11:35:49.768Z,96899.81
2023-03-08T11:38:24.781Z,96891.50
2023-03-08T11:40:57.281Z,96907.03
2023-03-08T11:43:42.167Z,96899.00
2023-03-08T11:46:23.434Z,96908.31
2023-03-08T11:48:53.141Z,96904.97
2023-03-08T11:51:28.823Z,96900.28
2023-03-08T11:54:12.638Z,96900.13
2023-03-08T11:56:56.848Z,96901.25
2023-03-08T11:59:38.931Z,96891.81
2023-03-08T12:02:10.340Z,96887.03
2023-03-08T12:05:01.658Z,96885.34
2023-03-08T12:07:45.289Z,96887.38
2023-03-08T12:10:27.167Z,96877.75
2023-03-08T12:13:20.649Z,96880.00
2023-03-08T12:16:17.562Z,96882.16
2023-03-08T12:19:15.931Z,96875.41
2023-03-08T12:21:59.232Z,96862.22
2023-03-08T12:24:25.842Z,96862.38
2023-03-08T12:27:04.015Z,96862.94
2023-03-08T12:29:43.905Z,96867.00
2023-03-08T12:32:13.270Z,96855.88
2023-03-08T12:34:41.517Z,96858.06
2023-03-08T12:37:22.167Z,96847.81
2023-03-08T12:40:44.108Z,96846.47
2023-03-08T12:43:19.696Z,96855.00
2023-03-08T12:45:47.493Z,96849.56
2023-03-08T12:48:20.237Z,96845.06
2023-03-08T12:51:26.737Z,96848.34
2023-03-08T12:53:53.391Z,96847.97
2023-03-08T12:56:29.944Z,96841.34
2023-03-08T12:59:11.718Z,96843.50
2023-03-08T13:01:44.319Z,96837.78
2023-03-08T13:04:41.342Z,96834.41
2023-03-08T13:07:14.790Z,96837.31
2023-03-08T13:09:41.536Z,96836.84
2023-03-08T13:12:38.180Z,96841.69
2023-03-08T13:15:22.303Z,96839.91
2023-03-08T13:18:12.225Z,96844.78
2023-03-08T13:21:05.130Z,96835.13
2023-03-08T13:23:43.916Z,96838.66
2023-03-08T13:26:16.681Z,96839.72
2023-03-08T13:28:47.970Z,96840.78
2023-03-08T13:31:27.264Z,96824.47
2023-03-08T13:33:59.243Z,96811.28
2023-03-08T13:36:32.128Z,96814.59
2023-03-08T13:39:08.208Z,96825.84
2023-03-08T13:41:36.555Z,96816.59
2023-03-08T13:44:14.150Z,96826.13
2023-03-08T13:46:43.145Z,96825.91
2023-03-08T13:49:27.258Z,96829.25
2023-03-08T13:51:57.292Z,96822.75
2023-03-08T13:54:30.482Z,96820.88
2023-03-08T13:57:00.160Z,96821.97
2023-03-08T13:59:27.094Z,96812.91
2023-03-08T14:01:55.448Z,96812.84
2023-03-08T14:04:25.402Z,96805.66
2023-03-08T14:06:54.408Z,96798.22
2023-03-08T14:09:21.865Z,96801.75
2023-03-08T14:12:01.096Z,96796.22
2023-03-08T14:14:32.596Z,96796.53
2023-03-08T14:16:59.995Z,96800.25
2023-03-08T14:19:39.698Z,96804.94
2023-03-08T14:22:28.713Z,96807.94
2023-03-08T14:25:05.270Z,96804.69
2023-03-08T14:27:42.621Z,96804.72
2023-03-08T14:30:35.671Z,96797.19
2023-03-08T14:33:14.423Z,96795.53
2023-03-08T14:35:45.193Z,96781.81
2023-03-08T14:38:23.819Z,96786.16
2023-03-08T14:40:51.288Z,96794.69
2023-03-08T14:43:24.449Z,96784.13
2023-03-08T14:46:01.986Z,96796.59
2023-03-08T14:48:34.256Z,96790.94
2023-03-08T14:51:03.988Z,96783.88
2023-03-08T14:53:35.197Z,96773.28
2023-03-08T14:56:15.197Z,96766.94
2023-03-08T14:58:53.785Z,96765.81
2023-03-08T15:01:26.214Z,96768.16
2023-03-08T15:03:52.943Z,96765.09
2023-03-08T15:06:22.893Z,96772.09
2023-03-08T15:08:50.123Z,96762.91
2023-03-08T15:11:17.092Z,96761.13
2023-03-08T15:13:45.905Z,96750.66
2023-03-08T15:16:14.460Z,96755.81
2023-03-08T15:18:41.470Z,96730.69
2023-03-08T15:21:13.964Z,96733.59
2023-03-08T15:23:41.946Z,96720.09
2023-03-08T15:26:11.882Z,96711.25
2023-03-08T15:28:38.423Z,96706.38
2023-03-08T15:31:05.535Z,96693.72
2023-03-08T15:33:32.121Z,96688.78
2023-03-08T15:35:58.970Z,96668.75
2023-03-08T15:38:25.752Z,96670.78
2023-03-08T15:40:52.362Z,96659.47
2023-03-08T15:43:18.885Z,96672.69
2023-03-08T15:45:45.590Z,96665.28
2023-03-08T15:48:17.991Z,96663.06
2023-03-08T15:50:45.038Z,96659.44
2023-03-08T15:53:12.756Z,96660.91
2023-03-08T15:55:41.101Z,96660.94
2023-03-08T15:58:08.930Z,96658.19
2023-03-08T16:00:36.196Z,96654.09
2023-03-08T16:03:02.981Z,96665.13
2023-03-08T16:05:30.610Z,96660.78
2023-03-08T16:08:02.840Z,96667.09
2023-03-08T16:10:33.517Z,96664.91
2023-03-08T16:13:00.083Z,96655.00
2023-03-08T16:15:27.054Z,96665.16
2023-03-08T16:17:53.686Z,96659.84
2023-03-08T16:20:23.145Z,96650.06
2023-03-08T16:22:50.596Z,96659.19
2023-03-08T16:25:17.485Z,96652.56
2023-03-08T16:27:44.038Z,96663.53
2023-03-08T16:30:12.538Z,96660.53
2023-03-08T16:32:39.358Z,96663.75
2023-03-08T16:35:06.535Z,96664.41
2023-03-08T16:37:33.132Z,96669.91
2023-03-08T16:40:02.052Z,96673.28
2023-03-08T16:42:29.829Z,96674.78
2023-03-08T16:44:56.916Z,96671.44
2023-03-08T16:47:25.234Z,96671.75
2023-03-08T16:49:52.953Z,96675.50
2023-03-08T16:52:19.732Z,96675.28
2023-03-08T16:54:46.353Z,96654.31
2023-03-08T16:57:19.841Z,96669.44
2023-03-08T16:59:47.579Z,96666.66
2023-03-08T17:02:17.881Z,96658.69
2023-03-08T17:04:45.125Z,96655.84
2023-03-08T17:07:11.811Z,96639.44
2023-03-08T17:09:39.062Z,96644.69
2023-03-08T17:12:06.537Z,96648.72
2023-03-08T17:14:34.822Z,96641.31
2023-03-08T17:17:01.935Z,96657.56
2023-03-08T17:19:28.609Z,96656.19
2023-03-08T17:21:55.834Z,96662.19
2023-03-08T17:24:22.694Z,96667.31
2023-03-08T17:26:51.238Z,96673.81
2023-03-08T17:29:18.210Z,96704.00
2023-03-08T17:31:45.021Z,96671.47
2023-03-08T17:34:11.663Z,96664.56
2023-03-08T17:36:38.886Z,96661.22
2023-03-08T17:39:06.180Z,96668.59
2023-03-08T17:41:33.118Z,96681.69
2023-03-08T17:43:59.874Z,96690.97
2023-03-08T17:46:27.729Z,96701.25
2023-03-08T17:48:55.860Z,96709.34
2023-03-08T17:51:26.191Z,96738.78
2023-03-08T17:53:53.333Z,96763.16
2023-03-08T17:56:29.591Z,96736.69
2023-03-08T17:58:58.059Z,96731.75
2023-03-08T18:01:27.459Z,96727.78
2023-03-08T18:03:55.462Z,96724.59
2023-03-08T18:06:37.860Z,96727.09
2023-03-08T18:09:07.976Z,96734.13
2023-03-08T18:11:37.936Z,96733.72
2023-03-08T18:14:10.402Z,96738.03
2023-03-08T18:16:37.728Z,96730.19
2023-03-08T18:19:05.467Z,96738.44
2023-03-08T18:21:33.876Z,96738.72
2023-03-08T18:24:00.738Z,96731.22
2023-03-08T18:26:28.006Z,96731.81
2023-03-08T18:28:54.619Z,96728.28
2023-03-08T18:31:25.905Z,96736.41
2023-03-08T18:33:54.676Z,96729.69
2023-03-08T18:36:22.115Z,96734.75
2023-03-08T18:38:48.844Z,96736.91
2023-03-08T18:41:25.449Z,96722.72
2023-03-08T18:43:52.151Z,96718.88
2023-03-08T18:46:19.216Z,96718.22
2023-03-08T18:48:50.665Z,96706.16
2023-03-08T18:51:17.374Z,96704.63
2023-03-08T18:53:44.599Z,96704.84
2023-03-08T18:56:11.174Z,96711.63
2023-03-08T18:58:37.878Z,96708.16
2023-03-08T19:01:14.059Z,96714.50
2023-03-08T19:03:41.789Z,96717.06
2023-03-08T19:06:09.779Z,96704.88
2023-03-08T19:08:36.556Z,96724.63
2023-03-08T19:11:18.023Z,96713.81
2023-03-08T19:13:44.854Z,96716.44
2023-03-08T19:16:20.896Z,96718.81
2023-03-08T19:18:49.244Z,96725.88
2023-03-08T19:21:17.919Z,96718.91
2023-03-08T19:23:44.685Z,96722.41
2023-03-08T19:26:38.096Z,96723.75
2023-03-08T19:29:11.363Z,96718.81
2023-03-08T19:31:51.511Z,96726.97
2023-03-08T19:34:19.939Z,96725.50
2023-03-08T19:36:47.757Z,96733.91
2023-03-08T19:39:20.053Z,96734.03
2023-03-08T19:41:58.444Z,96729.47
2023-03-08T19:44:26.041Z,96728.84
2023-03-08T19:46:53.568Z,96716.84
2023-03-08T19:49:22.604Z,96725.84
2023-03-08T19:51:51.130Z,96721.84
2023-03-08T19:54:19.193Z,96721.38
2023-03-08T19:56:45.920Z,96713.94
2023-03-08T19:59:12.737Z,96717.84
2023-03-08T20:01:40.538Z,96709.63
2023-03-08T20:04:08.551Z,96710.31
2023-03-08T20:06:41.516Z,96705.19
2023-03-08T20:09:09.763Z,96716.91
2023-03-08T20:11:37.320Z,96714.88
2023-03-08T20:14:04.873Z,96703.59
2023-03-08T20:16:31.651Z,96711.16
2023-03-08T20:18:58.542Z,96706.28
2023-03-08T20:21:28.516Z,96705.75
2023-03-08T20:23:56.210Z,96711.13
2023-03-08T20:26:24.207Z,96704.72
2023-03-08T20:28:51.691Z,96703.22
2023-03-08T20:31:19.225Z,96704.16
2023-03-08T20:33:46.103Z,96699.97
2023-03-08T20:36:13.002Z,96692.78
2023-03-08T20:38:39.912Z,96692.31
2023-03-08T20:41:15.680Z,96691.56
2023-03-08T20:43:44.155Z,96688.13
2023-03-08T20:46:12.945Z,96685.44
2023-03-08T20:48:41.176Z,96692.81
2023-03-08T20:51:10.858Z,96695.97
2023-03-08T20:53:37.796Z,96705.28
2023-03-08T20:56:06.246Z,96708.44
2023-03-08T20:58:33.056Z,96696.91
2023-03-08T21:00:59.956Z,96691.03
2023-03-08T21:03:27.510Z,96688.53
2023-03-08T21:05:54.103Z,96686.56
2023-03-08T21:08:24.185Z,96684.97
2023-03-08T21:10:50.830Z,96685.97
2023-03-08T21:13:17.686Z,96683.97
2023-03-08T21:15:44.613Z,96692.22
2023-03-08T21:18:11.280Z,96695.69
2023-03-08T21:20:38.480Z,96687.31
2023-03-08T21:23:05.073Z,96690.75
2023-03-08T21:25:35.701Z,96688.03
2023-03-08T21:28:02.250Z,96692.88
2023-03-08T21:30:30.585Z,96688.41
2023-03-08T21:32:57.162Z,96683.13
2023-03-08T21:35:24.013Z,96681.88
2023-03-08T21:37:50.788Z,96684.56
2023-03-08T21:40:17.580Z,96677.78
2023-03-08T21:42:44.122Z,96670.06
2023-03-08T21:45:10.940Z,96672.66
2023-03-08T21:47:37.824Z,96671.94
2023-03-08T21:50:04.846Z,96673.88
2023-03-08T21:52:31.453Z,96667.22
2023-03-08T21:54:58.060Z,96669.47
2023-03-08T21:57:24.661Z,96677.06
2023-03-08T21:59:51.245Z,96665.66
